createdAt,value
2023-03-05T00:00:15.715Z,44.83
2023-03-05T00:02:43.200Z,45.10
2023-03-05T00:05:11.417Z,43.60
2023-03-05T00:07:38.697Z,45.33
2023-03-05T00:10:06.985Z,44.22
2023-03-05T00:12:34.269Z,42.15
2023-03-05T00:15:01.596Z,42.90
2023-03-05T00:17:29.753Z,44.67
2023-03-05T00:19:59.969Z,44.35
2023-03-05T00:22:28.128Z,43.05
2023-03-05T00:24:55.462Z,45.60
2023-03-05T00:27:22.797Z,42.95
2023-03-05T00:29:50.082Z,42.60
2023-03-05T00:32:17.515Z,44.13
2023-03-05T00:34:45.428Z,44.00
2023-03-05T00:37:12.725Z,41.53
2023-03-05T00:39:39.968Z,42.58
2023-03-05T00:42:07.821Z,42.95
2023-03-05T00:44:35.633Z,44.03
2023-03-05T00:47:03.057Z,41.50
2023-03-05T00:49:30.360Z,44.50
2023-03-05T00:51:57.564Z,42.70
2023-03-05T00:54:24.867Z,42.95
2023-03-05T00:56:52.165Z,42.38
2023-03-05T00:59:19.455Z,42.88
2023-03-05T01:01:46.773Z,41.22
2023-03-05T01:04:14.075Z,42.42
2023-03-05T01:06:44.842Z,42.70
2023-03-05T01:09:14.280Z,43.83
2023-03-05T01:11:41.669Z,44.25
2023-03-05T01:14:09.158Z,41.30
2023-03-05T01:16:36.401Z,43.10
2023-03-05T01:19:03.676Z,44.75
2023-03-05T01:21:30.971Z,42.97
2023-03-05T01:23:58.969Z,43.67
2023-03-05T01:26:26.354Z,42.72
2023-03-05T01:28:53.977Z,44.53
2023-03-05T01:31:21.408Z,42.38
2023-03-05T01:33:48.692Z,43.15
2023-03-05T01:36:16.900Z,44.17
2023-03-05T01:38:45.740Z,44.80
2023-03-05T01:41:15.474Z,43.65
2023-03-05T01:43:43.749Z,43.90
2023-03-05T01:46:29.795Z,43.97
2023-03-05T01:48:59.933Z,42.92
2023-03-05T01:51:31.787Z,43.65
2023-03-05T01:54:01.977Z,43.55
2023-03-05T01:56:30.800Z,42.70
2023-03-05T01:59:03.563Z,43.55
2023-03-05T02:01:42.567Z,44.17
2023-03-05T02:04:12.848Z,44.42
2023-03-05T02:06:42.480Z,44.15
2023-03-05T02:09:10.874Z,42.45
2023-03-05T02:11:38.836Z,43.42
2023-03-05T02:14:09.910Z,43.13
2023-03-05T02:16:38.494Z,43.55
2023-03-05T02:19:08.597Z,42.78
2023-03-05T02:21:43.276Z,42.72
2023-03-05T02:24:37.536Z,42.00
2023-03-05T02:27:05.983Z,42.05
2023-03-05T02:29:34.063Z,43.33
2023-03-05T02:32:01.906Z,42.50
2023-03-05T02:34:29.629Z,42.28
2023-03-05T02:36:57.120Z,43.42
2023-03-05T02:39:25.559Z,41.50
2023-03-05T02:41:53.937Z,42.78
2023-03-05T02:44:21.211Z,42.85
2023-03-05T02:46:48.683Z,41.25
2023-03-05T02:49:16.401Z,43.35
2023-03-05T02:51:43.628Z,41.85
2023-03-05T02:54:11.201Z,42.70
2023-03-05T02:56:39.557Z,43.38
2023-03-05T02:59:06.886Z,42.97
2023-03-05T03:01:34.961Z,42.20
2023-03-05T03:04:02.291Z,42.22
2023-03-05T03:06:29.604Z,41.40
2023-03-05T03:08:57.864Z,41.90
2023-03-05T03:11:25.187Z,42.20
2023-03-05T03:13:52.441Z,43.08
2023-03-05T03:16:19.981Z,42.13
2023-03-05T03:18:48.843Z,42.25
2023-03-05T03:21:22.261Z,42.05
2023-03-05T03:23:49.730Z,41.30
2023-03-05T03:26:17.405Z,42.63
2023-03-05T03:28:45.166Z,42.85
2023-03-05T03:31:12.499Z,42.88
2023-03-05T03:33:39.859Z,42.30
2023-03-05T03:36:07.825Z,43.88
2023-03-05T03:38:35.242Z,44.63
2023-03-05T03:41:03.711Z,43.67
2023-03-05T03:43:30.932Z,43.15
2023-03-05T03:45:58.273Z,43.35
2023-03-05T03:48:25.613Z,43.22
2023-03-05T03:50:52.842Z,43.00
2023-03-05T03:53:20.124Z,41.83
2023-03-05T03:55:47.551Z,41.08
2023-03-05T03:58:14.868Z,41.08
2023-03-05T04:00:42.588Z,42.15
2023-03-05T04:03:09.821Z,42.30
2023-03-05T04:05:37.146Z,40.90
2023-03-05T04:08:04.978Z,40.55
2023-03-05T04:10:32.252Z,41.47
2023-03-05T04:12:59.564Z,42.45
2023-03-05T04:15:30.405Z,42.72
2023-03-05T04:17:57.650Z,43.13
2023-03-05T04:20:25.027Z,43.03
2023-03-05T04:22:52.516Z,42.65
2023-03-05T04:25:19.733Z,44.22
2023-03-05T04:27:50.393Z,42.92
2023-03-05T04:30:17.800Z,41.67
2023-03-05T04:32:45.122Z,42.05
2023-03-05T04:35:12.414Z,43.15
2023-03-05T04:37:39.632Z,42.95
2023-03-05T04:40:07.814Z,44.17
2023-03-05T04:42:35.131Z,42.67
2023-03-05T04:45:02.709Z,43.17
2023-03-05T04:47:30.094Z,43.53
2023-03-05T04:49:57.336Z,41.83
2023-03-05T04:52:24.775Z,41.65
2023-03-05T04:54:52.095Z,40.65
2023-03-05T04:57:19.415Z,41.70
2023-03-05T04:59:46.706Z,41.03
2023-03-05T05:02:13.966Z,41.78
2023-03-05T05:04:44.968Z,40.30
2023-03-05T05:07:12.585Z,42.42
2023-03-05T05:09:41.512Z,42.33
2023-03-05T05:12:10.395Z,43.25
2023-03-05T05:14:37.903Z,42.53
2023-03-05T05:17:05.338Z,43.05
2023-03-05T05:19:34.736Z,43.63
2023-03-05T05:22:02.304Z,43.00
2023-03-05T05:24:29.746Z,45.80
2023-03-05T05:26:57.206Z,44.08
2023-03-05T05:29:24.811Z,44.03
2023-03-05T05:31:54.101Z,42.92
2023-03-05T05:34:21.460Z,42.13
2023-03-05T05:36:48.710Z,42.83
2023-03-05T05:39:15.931Z,42.65
2023-03-05T05:41:43.194Z,41.22
2023-03-05T05:44:10.596Z,41.95
2023-03-05T05:46:37.918Z,40.75
2023-03-05T05:49:05.376Z,40.95
2023-03-05T05:51:32.613Z,42.20
2023-03-05T05:54:00.054Z,41.70
2023-03-05T05:56:27.970Z,40.70
2023-03-05T05:58:55.545Z,41.97
2023-03-05T06:01:30.524Z,42.28
2023-03-05T06:03:58.595Z,39.90
2023-03-05T06:06:27.111Z,42.08
2023-03-05T06:08:55.485Z,40.47
2023-03-05T06:11:23.082Z,41.28
2023-03-05T06:13:50.663Z,41.55
2023-03-05T06:16:21.148Z,42.53
2023-03-05T06:18:48.566Z,40.85
2023-03-05T06:21:18.194Z,40.40
2023-03-05T06:23:46.786Z,40.63
2023-03-05T06:26:17.301Z,39.90
2023-03-05T06:28:45.126Z,40.25
2023-03-05T06:31:15.459Z,40.08
2023-03-05T06:33:44.019Z,39.08
2023-03-05T06:36:16.805Z,38.97
2023-03-05T06:38:44.514Z,39.97
2023-03-05T06:41:17.973Z,39.65
2023-03-05T06:43:46.912Z,40.25
2023-03-05T06:46:17.527Z,37.60
2023-03-05T06:48:45.749Z,38.42
2023-03-05T06:51:22.122Z,38.33
2023-03-05T06:56:18.036Z,36.60
2023-03-05T06:58:47.990Z,37.55
2023-03-05T07:01:16.198Z,38.70
2023-03-05T07:03:43.762Z,38.72
2023-03-05T07:06:13.899Z,38.78
2023-03-05T07:08:44.676Z,38.03
2023-03-05T07:11:14.304Z,38.47
2023-03-05T07:13:42.004Z,38.20
2023-03-05T07:16:13.451Z,36.03
2023-03-05T07:18:40.769Z,34.80
2023-03-05T07:21:09.572Z,36.05
2023-03-05T07:23:36.939Z,35.05
2023-03-05T07:26:06.227Z,34.88
2023-03-05T07:28:34.298Z,35.70
2023-03-05T07:31:05.225Z,35.85
2023-03-05T07:33:33.674Z,35.63
2023-03-05T07:36:01.610Z,36.22
2023-03-05T07:38:28.884Z,36.47
2023-03-05T07:40:56.134Z,35.20
2023-03-05T07:43:23.378Z,36.63
2023-03-05T07:45:50.863Z,37.80
2023-03-05T07:48:20.963Z,36.33
2023-03-05T07:50:48.862Z,47.15
2023-03-05T07:53:16.268Z,39.25
2023-03-05T07:55:47.443Z,37.10
2023-03-05T07:58:15.006Z,39.08
2023-03-05T08:00:42.540Z,37.72
2023-03-05T08:03:09.797Z,37.33
2023-03-05T08:05:40.321Z,36.83
2023-03-05T08:08:08.363Z,36.80
2023-03-05T08:10:37.152Z,35.53
2023-03-05T08:13:05.148Z,35.67
2023-03-05T08:15:32.514Z,34.45
2023-03-05T08:18:00.377Z,34.72
2023-03-05T08:20:27.609Z,35.05
2023-03-05T08:22:54.877Z,34.53
2023-03-05T08:25:22.457Z,35.08
2023-03-05T08:27:49.724Z,35.72
2023-03-05T08:30:20.350Z,33.42
2023-03-05T08:32:49.555Z,33.53
2023-03-05T08:35:16.893Z,35.28
2023-03-05T08:37:44.251Z,35.28
2023-03-05T08:40:12.473Z,35.78
2023-03-05T08:42:39.748Z,33.75
2023-03-05T08:45:07.828Z,37.10
2023-03-05T08:47:35.158Z,35.80
2023-03-05T08:50:02.372Z,35.88
2023-03-05T08:52:29.777Z,35.05
2023-03-05T08:54:57.205Z,37.10
2023-03-05T08:57:24.421Z,35.78
2023-03-05T08:59:51.729Z,35.58
2023-03-05T09:02:18.955Z,35.53
2023-03-05T09:04:46.259Z,36.55
2023-03-05T09:07:13.545Z,34.47
2023-03-05T09:09:40.892Z,34.75
2023-03-05T09:12:12.073Z,34.58
2023-03-05T09:14:40.705Z,34.53
2023-03-05T09:17:09.027Z,35.00
2023-03-05T09:19:36.324Z,34.88
2023-03-05T09:22:03.690Z,36.22
2023-03-05T09:24:30.964Z,36.72
2023-03-05T09:27:00.304Z,35.63
2023-03-05T09:29:28.682Z,37.42
2023-03-05T09:31:55.991Z,35.15
2023-03-05T09:34:24.050Z,35.53
2023-03-05T09:36:51.330Z,35.53
2023-03-05T09:39:18.602Z,35.88
2023-03-05T09:42:32.009Z,37.38
2023-03-05T09:45:22.396Z,36.20
2023-03-05T09:48:16.773Z,37.88
2023-03-05T09:50:58.685Z,37.60
2023-03-05T09:53:36.848Z,38.35
2023-03-05T09:56:12.498Z,37.17
2023-03-05T09:58:49.554Z,38.10
2023-03-05T10:01:27.022Z,37.33
2023-03-05T10:04:04.024Z,36.97
2023-03-05T10:06:36.623Z,37.60
2023-03-05T10:09:09.951Z,35.92
2023-03-05T10:11:43.406Z,35.08
2023-03-05T10:14:16.087Z,35.05
2023-03-05T10:16:55.570Z,35.50
2023-03-05T10:19:44.312Z,36.03
2023-03-05T10:22:29.660Z,35.65
2023-03-05T10:25:06.065Z,36.72
2023-03-05T10:27:42.133Z,35.15
2023-03-05T10:30:26.892Z,35.92
2023-03-05T10:33:12.448Z,37.30
2023-03-05T10:35:48.898Z,37.15
2023-03-05T10:38:22.663Z,36.90
2023-03-05T10:40:54.489Z,36.35
2023-03-05T10:43:48.168Z,35.75
2023-03-05T10:46:22.187Z,36.13
2023-03-05T10:48:59.614Z,36.47
2023-03-05T10:51:41.081Z,35.35
2023-03-05T10:54:31.759Z,37.25
2023-03-05T10:57:14.164Z,37.75
2023-03-05T10:59:55.249Z,37.22
2023-03-05T11:02:23.163Z,38.25
2023-03-05T11:04:52.190Z,37.22
2023-03-05T11:07:19.415Z,37.85
2023-03-05T11:10:16.113Z,38.13
2023-03-05T11:12:44.993Z,35.97
2023-03-05T11:15:12.156Z,34.97
2023-03-05T11:17:49.186Z,37.15
2023-03-05T11:20:34.625Z,36.35
2023-03-05T11:23:24.218Z,37.38
2023-03-05T11:26:02.494Z,36.88
2023-03-05T11:28:39.522Z,36.10
2023-03-05T11:31:18.211Z,33.97
2023-03-05T11:34:04.557Z,36.58
2023-03-05T11:36:39.935Z,35.72
2023-03-05T11:39:10.164Z,33.38
2023-03-05T11:41:50.381Z,32.28
2023-03-05T11:44:45.037Z,34.97
2023-03-05T11:47:18.423Z,34.58
2023-03-05T11:49:50.089Z,33.72
2023-03-05T11:52:34.037Z,34.53
2023-03-05T11:55:13.346Z,34.13
2023-03-05T11:57:49.689Z,34.03
2023-03-05T12:00:23.826Z,34.65
2023-03-05T12:02:56.254Z,34.10
2023-03-05T12:05:23.734Z,32.80
2023-03-05T12:07:55.178Z,32.67
2023-03-05T12:10:24.882Z,33.88
2023-03-05T12:13:04.140Z,34.65
2023-03-05T12:16:12.501Z,40.00
2023-03-05T12:18:58.430Z,45.03
2023-03-05T12:21:38.044Z,33.97
2023-03-05T12:24:24.839Z,34.13
2023-03-05T12:26:55.953Z,32.53
2023-03-05T12:29:49.018Z,35.40
2023-03-05T12:32:22.784Z,33.85
2023-03-05T12:34:58.160Z,34.17
2023-03-05T12:37:25.661Z,33.10
2023-03-05T12:40:23.319Z,32.33
2023-03-05T12:43:15.443Z,36.40
2023-03-05T12:45:42.998Z,34.35
2023-03-05T12:48:12.371Z,35.15
2023-03-05T12:50:39.790Z,35.80
2023-03-05T12:53:07.085Z,36.33
2023-03-05T12:55:40.745Z,36.60
2023-03-05T12:58:17.019Z,35.08
2023-03-05T13:00:52.028Z,35.55
2023-03-05T13:03:30.824Z,37.25
2023-03-05T13:06:00.498Z,38.13
2023-03-05T13:08:35.287Z,35.28
2023-03-05T13:11:08.716Z,36.00
2023-03-05T13:13:41.725Z,36.22
2023-03-05T13:16:23.888Z,37.85
2023-03-05T13:18:53.112Z,36.85
2023-03-05T13:21:26.593Z,35.90
2023-03-05T13:23:58.919Z,37.35
2023-03-05T13:26:36.547Z,36.40
2023-03-05T13:29:13.485Z,36.53
2023-03-05T13:31:46.544Z,36.13
2023-03-05T13:34:23.320Z,35.85
2023-03-05T13:37:01.846Z,36.20
2023-03-05T13:39:33.901Z,35.75
2023-03-05T13:42:26.574Z,36.80
2023-03-05T13:44:59.348Z,36.78
2023-03-05T13:47:32.679Z,36.10
2023-03-05T13:50:05.990Z,37.55
2023-03-05T13:52:36.179Z,35.92
2023-03-05T13:55:12.395Z,36.15
2023-03-05T14:00:38.982Z,36.95
2023-03-05T14:03:34.646Z,35.20
2023-03-05T14:06:09.499Z,36.95
2023-03-05T14:08:36.911Z,35.30
2023-03-05T14:11:15.389Z,36.42
2023-03-05T14:13:43.529Z,36.83
2023-03-05T14:16:12.697Z,35.80
2023-03-05T14:18:54.559Z,36.28
2023-03-05T14:21:21.864Z,35.55
2023-03-05T14:23:52.966Z,35.25
2023-03-05T14:26:33.453Z,37.88
2023-03-05T14:29:03.697Z,37.13
2023-03-05T14:31:54.574Z,37.95
2023-03-05T14:34:31.111Z,36.17
2023-03-05T14:37:04.059Z,37.05
2023-03-05T14:39:52.814Z,36.58
2023-03-05T14:42:38.412Z,35.90
2023-03-05T14:45:16.654Z,37.28
2023-03-05T14:47:44.676Z,35.92
2023-03-05T14:50:37.081Z,36.00
2023-03-05T14:53:15.605Z,36.55
2023-03-05T14:55:43.710Z,36.88
2023-03-05T14:58:14.453Z,36.75
2023-03-05T15:00:42.951Z,38.88
2023-03-05T15:03:17.289Z,39.50
2023-03-05T15:05:47.877Z,37.50
2023-03-05T15:08:20.267Z,38.17
2023-03-05T15:10:48.447Z,37.47
2023-03-05T15:13:16.864Z,38.08
2023-03-05T15:15:45.974Z,39.03
2023-03-05T15:18:14.572Z,36.88
2023-03-05T15:20:42.546Z,37.40
2023-03-05T15:23:10.461Z,35.67
2023-03-05T15:25:37.695Z,38.70
2023-03-05T15:28:05.569Z,37.22
2023-03-05T15:30:40.886Z,39.88
2023-03-05T15:33:11.367Z,38.45
2023-03-05T15:35:38.885Z,39.40
2023-03-05T15:38:06.321Z,38.85
2023-03-05T15:40:33.812Z,38.63
2023-03-05T15:43:01.472Z,39.97
2023-03-05T15:45:31.329Z,38.38
2023-03-05T15:47:58.903Z,41.78
2023-03-05T15:50:26.386Z,40.50
2023-03-05T15:52:53.803Z,40.10
2023-03-05T15:55:21.690Z,39.90
2023-03-05T15:57:50.456Z,38.33
2023-03-05T16:00:23.817Z,40.00
2023-03-05T16:02:53.022Z,41.08
2023-03-05T16:05:20.474Z,41.53
2023-03-05T16:07:51.757Z,40.05
2023-03-05T16:10:23.968Z,41.55
2023-03-05T16:12:54.392Z,40.35
2023-03-05T16:15:22.501Z,40.97
2023-03-05T16:17:54.948Z,40.63
2023-03-05T16:20:22.885Z,40.75
2023-03-05T16:22:50.522Z,40.60
2023-03-05T16:25:17.953Z,41.88
2023-03-05T16:27:45.463Z,41.55
2023-03-05T16:30:15.108Z,41.47
2023-03-05T16:32:43.002Z,41.90
2023-03-05T16:35:12.517Z,42.55
2023-03-05T16:37:41.039Z,42.00
2023-03-05T16:40:11.137Z,40.38
2023-03-05T16:42:38.574Z,40.80
2023-03-05T16:45:07.359Z,41.20
2023-03-05T16:47:34.982Z,41.90
2023-03-05T16:50:02.405Z,42.53
2023-03-05T16:52:29.879Z,43.03
2023-03-05T16:54:57.141Z,41.83
2023-03-05T16:57:25.590Z,42.63
2023-03-05T16:59:54.127Z,43.45
2023-03-05T17:02:22.208Z,44.08
2023-03-05T17:04:50.376Z,44.22
2023-03-05T17:07:18.610Z,42.08
2023-03-05T17:09:47.958Z,44.22
2023-03-05T17:12:15.476Z,42.83
2023-03-05T17:14:42.882Z,43.42
2023-03-05T17:17:10.737Z,45.17
2023-03-05T17:19:38.512Z,45.60
2023-03-05T17:22:06.124Z,44.03
2023-03-05T17:24:33.954Z,45.40
2023-03-05T17:27:01.381Z,44.75
2023-03-05T17:29:30.518Z,43.58
2023-03-05T17:31:57.846Z,45.72
2023-03-05T17:34:35.489Z,46.55
2023-03-05T17:37:04.927Z,45.88
2023-03-05T17:39:32.645Z,48.53
2023-03-05T17:42:00.326Z,48.72
2023-03-05T17:44:27.617Z,46.38
2023-03-05T17:46:54.881Z,46.08
2023-03-05T17:49:22.293Z,48.03
2023-03-05T17:51:49.652Z,46.92
2023-03-05T17:54:16.976Z,47.90
2023-03-05T17:56:44.737Z,46.53
2023-03-05T17:59:12.053Z,49.20
2023-03-05T18:01:39.297Z,46.80
2023-03-05T18:04:06.730Z,47.25
2023-03-05T18:06:34.096Z,48.42
2023-03-05T18:09:01.492Z,48.95
2023-03-05T18:11:30.815Z,48.65
2023-03-05T18:13:58.529Z,48.08
2023-03-05T18:16:26.681Z,47.50
2023-03-05T18:18:54.637Z,48.45
2023-03-05T18:21:24.220Z,48.45
2023-03-05T18:23:52.070Z,48.33
2023-03-05T18:26:19.408Z,46.30
2023-03-05T18:28:47.149Z,48.38
2023-03-05T18:31:14.580Z,49.03
2023-03-05T18:33:42.983Z,50.95
2023-03-05T18:36:11.862Z,49.38
2023-03-05T18:38:39.231Z,51.15
2023-03-05T18:41:08.002Z,50.58
2023-03-05T18:43:36.785Z,52.08
2023-03-05T18:46:05.114Z,51.15
2023-03-05T18:48:32.500Z,52.17
2023-03-05T18:51:01.845Z,52.97
2023-03-05T18:53:29.802Z,52.65
2023-03-05T18:55:57.199Z,52.28
2023-03-05T18:58:26.042Z,52.83
2023-03-05T19:00:53.725Z,53.10
2023-03-05T19:03:22.923Z,52.85
2023-03-05T19:05:51.384Z,54.78
2023-03-05T19:08:19.068Z,53.10
2023-03-05T19:10:46.973Z,52.70
2023-03-05T19:13:43.828Z,54.65
2023-03-05T19:16:16.864Z,52.72
2023-03-05T19:19:23.768Z,52.45
2023-03-05T19:21:54.181Z,51.40
2023-03-05T19:24:23.386Z,50.50
2023-03-05T19:26:55.087Z,49.65
2023-03-05T19:29:23.924Z,47.33
2023-03-05T19:31:52.580Z,48.63
2023-03-05T19:34:20.697Z,48.00
2023-03-05T19:36:48.118Z,46.38
2023-03-05T19:39:15.605Z,48.67
2023-03-05T19:41:43.280Z,47.20
2023-03-05T19:44:11.861Z,48.28
2023-03-05T19:46:41.675Z,46.75
2023-03-05T19:49:10.121Z,45.58
2023-03-05T19:51:39.803Z,46.90
2023-03-05T19:54:07.159Z,46.15
2023-03-05T19:56:37.924Z,45.17
2023-03-05T19:59:05.842Z,45.78
2023-03-05T20:01:34.144Z,46.15
2023-03-05T20:04:04.111Z,45.17
2023-03-05T20:06:32.611Z,42.35
2023-03-05T20:09:00.221Z,39.13
2023-03-05T20:11:28.548Z,40.97
2023-03-05T20:13:56.676Z,39.67
2023-03-05T20:16:27.385Z,38.60
2023-03-05T20:18:56.141Z,38.85
2023-03-05T20:21:29.181Z,36.17
2023-03-05T20:24:05.628Z,38.72
2023-03-05T20:26:36.030Z,37.35
2023-03-05T20:29:04.940Z,37.95
2023-03-05T20:31:35.283Z,36.47
2023-03-05T20:34:08.995Z,37.45
2023-03-05T20:36:37.080Z,36.70
2023-03-05T20:39:05.895Z,37.58
2023-03-05T20:41:35.479Z,39.03
2023-03-05T20:44:03.402Z,36.65
2023-03-05T20:46:33.864Z,37.60
2023-03-05T20:49:02.404Z,37.13
2023-03-05T20:51:31.141Z,36.50
2023-03-05T20:54:02.595Z,36.15
2023-03-05T20:56:32.462Z,36.13
2023-03-05T20:59:03.824Z,34.40
2023-03-05T21:01:33.386Z,35.00
2023-03-05T21:04:01.639Z,33.53
2023-03-05T21:06:31.058Z,35.22
2023-03-05T21:08:59.252Z,34.03
2023-03-05T21:11:28.044Z,33.28
2023-03-05T21:13:55.347Z,34.00
2023-03-05T21:16:25.766Z,34.50
2023-03-05T21:18:53.867Z,33.47
2023-03-05T21:21:21.217Z,33.05
2023-03-05T21:23:48.476Z,33.22
2023-03-05T21:26:15.784Z,33.63
2023-03-05T21:28:43.128Z,32.90
2023-03-05T21:31:22.266Z,32.63
2023-03-05T21:33:49.949Z,32.67
2023-03-05T21:36:19.195Z,35.00
2023-03-05T21:38:48.297Z,32.47
2023-03-05T21:41:18.085Z,33.60
2023-03-05T21:43:45.655Z,33.30
2023-03-05T21:46:14.965Z,34.72
2023-03-05T21:48:42.261Z,33.92
2023-03-05T21:52:10.895Z,33.65
2023-03-05T21:54:44.770Z,32.75
2023-03-05T21:57:12.214Z,32.58
2023-03-05T21:59:42.528Z,34.22
2023-03-05T22:02:16.055Z,32.80
2023-03-05T22:04:43.914Z,33.67
2023-03-05T22:07:11.887Z,35.05
2023-03-05T22:09:39.442Z,35.55
2023-03-05T22:13:08.844Z,35.08
2023-03-05T22:15:46.253Z,36.35
2023-03-05T22:18:19.834Z,35.67
2023-03-05T22:20:47.864Z,36.67
2023-03-05T22:23:19.374Z,39.85
2023-03-05T22:25:54.746Z,37.08
2023-03-05T22:31:23.510Z,39.45
2023-03-05T22:33:50.864Z,37.92
2023-03-05T22:36:18.744Z,37.15
2023-03-05T22:38:46.755Z,35.53
2023-03-05T22:41:16.627Z,36.78
2023-03-05T22:43:43.900Z,43.55
2023-03-05T22:46:16.136Z,37.30
2023-03-05T22:48:44.062Z,49.70
2023-03-05T22:51:11.759Z,40.50
2023-03-05T22:53:39.856Z,39.03
2023-03-05T22:56:09.770Z,39.53
2023-03-05T22:58:38.006Z,38.85
2023-03-05T23:01:24.993Z,42.08
2023-03-05T23:04:53.059Z,39.70
2023-03-05T23:07:23.579Z,40.28
2023-03-05T23:10:01.312Z,40.55
2023-03-05T23:12:31.927Z,44.78
2023-03-05T23:15:01.264Z,45.40
2023-03-05T23:18:45.552Z,44.10
2023-03-05T23:21:38.568Z,43.50
2023-03-05T23:24:06.476Z,42.60
2023-03-05T23:26:33.802Z,41.50
2023-03-05T23:29:01.003Z,41.35
2023-03-05T23:31:28.668Z,42.05
2023-03-05T23:33:56.210Z,39.90
2023-03-05T23:36:25.494Z,40.92
2023-03-05T23:38:57.421Z,40.83
2023-03-05T23:41:25.238Z,40.78
2023-03-05T23:43:52.648Z,41.47
2023-03-05T23:46:20.148Z,39.95
2023-03-05T23:48:47.678Z,41.63
2023-03-05T23:51:15.630Z,39.30
2023-03-05T23:53:44.239Z,38.75
2023-03-05T23:56:12.467Z,39.75
2023-03-05T23:58:40.023Z,40.35
